createdAt,value
2023-03-17T00:00:39.241Z,0.07
2023-03-17T00:03:06.796Z,0.07
2023-03-17T00:05:38.750Z,-0.04
2023-03-17T00:08:13.224Z,0.20
2023-03-17T00:10:40.214Z,0.20
2023-03-17T00:13:07.081Z,0.21
2023-03-17T00:15:34.024Z,0.11
2023-03-17T00:18:00.837Z,0.19
2023-03-17T00:20:31.044Z,0.17
2023-03-17T00:23:01.472Z,0.17
2023-03-17T00:25:29.787Z,0.19
2023-03-17T00:27:58.473Z,0.17
2023-03-17T00:30:28.347Z,0.04
2023-03-17T00:32:58.370Z,0.06
2023-03-17T00:35:28.618Z,0.07
2023-03-17T00:37:57.714Z,0.03
2023-03-17T00:40:31.286Z,0.14
2023-03-17T00:43:03.304Z,0.14
2023-03-17T00:45:30.062Z,0.15
2023-03-17T00:47:57.731Z,0.04
2023-03-17T00:50:28.685Z,-0.07
2023-03-17T00:52:57.921Z,-0.09
2023-03-17T00:55:26.749Z,-0.12
2023-03-17T00:57:54.458Z,-0.14
2023-03-17T01:00:27.777Z,-0.22
2023-03-17T01:02:57.351Z,-0.11
2023-03-17T01:05:25.604Z,-0.12
2023-03-17T01:07:58.904Z,-0.20
2023-03-17T01:10:28.280Z,-0.28
2023-03-17T01:12:58.035Z,-0.39
2023-03-17T01:15:28.895Z,-0.35
2023-03-17T01:17:57.264Z,-0.33
2023-03-17T01:20:30.124Z,-0.37
2023-03-17T01:22:57.220Z,-0.31
2023-03-17T01:25:24.146Z,-0.41
2023-03-17T01:27:51.585Z,-0.38
2023-03-17T01:30:24.283Z,-0.38
2023-03-17T01:32:51.177Z,-0.44
2023-03-17T01:35:20.144Z,-0.54
2023-03-17T01:37:47.563Z,-0.49
2023-03-17T01:40:18.210Z,-0.48
2023-03-17T01:42:52.301Z,-0.64
2023-03-17T01:45:56.706Z,-0.45
2023-03-17T01:48:25.953Z,-0.35
2023-03-17T01:50:53.986Z,-0.39
2023-03-17T01:53:22.598Z,-0.59
2023-03-17T01:55:51.825Z,-0.53
2023-03-17T01:58:23.126Z,-0.55
2023-03-17T02:00:50.635Z,-0.59
2023-03-17T02:03:18.309Z,-0.83
2023-03-17T02:05:46.670Z,-0.67
2023-03-17T02:08:16.459Z,-0.71
2023-03-17T02:10:45.723Z,-0.80
2023-03-17T02:13:14.678Z,-0.70
2023-03-17T02:15:41.447Z,-0.75
2023-03-17T02:18:09.594Z,-0.78
2023-03-17T02:20:36.988Z,-0.88
2023-03-17T02:23:05.977Z,-0.92
2023-03-17T02:25:35.544Z,-0.90
2023-03-17T02:28:09.934Z,-0.91
2023-03-17T02:30:37.684Z,-0.94
2023-03-17T02:33:04.506Z,-1.02
2023-03-17T02:35:32.098Z,-0.99
2023-03-17T02:37:58.897Z,-0.91
2023-03-17T02:40:28.996Z,-0.95
2023-03-17T02:42:56.537Z,-0.97
2023-03-17T02:45:28.663Z,-1.07
2023-03-17T02:47:56.071Z,-0.93
2023-03-17T02:50:26.097Z,-0.91
2023-03-17T02:52:52.834Z,-0.93
2023-03-17T02:55:20.388Z,-0.96
2023-03-17T02:57:47.175Z,-0.74
2023-03-17T03:00:14.403Z,-0.60
2023-03-17T03:02:41.512Z,-0.47
2023-03-17T03:05:08.966Z,-0.38
2023-03-17T03:07:36.442Z,-0.28
2023-03-17T03:10:04.121Z,-0.14
2023-03-17T03:12:31.029Z,-0.07
2023-03-17T03:14:58.850Z,-0.07
2023-03-17T03:17:25.680Z,-0.22
2023-03-17T03:19:52.462Z,-0.12
2023-03-17T03:22:19.531Z,-0.42
2023-03-17T03:24:46.306Z,-0.36
2023-03-17T03:27:13.189Z,-0.26
2023-03-17T03:29:39.985Z,-0.18
2023-03-17T03:32:07.385Z,-0.17
2023-03-17T03:34:34.400Z,-0.15
2023-03-17T03:37:01.215Z,-0.03
2023-03-17T03:39:27.943Z,-0.05
2023-03-17T03:41:58.230Z,-0.05
2023-03-17T03:44:25.404Z,-0.02
2023-03-17T03:46:52.207Z,-0.09
2023-03-17T03:49:19.108Z,-0.10
2023-03-17T03:51:45.883Z,-0.22
2023-03-17T03:54:12.690Z,-0.33
2023-03-17T03:56:39.457Z,-0.40
2023-03-17T03:59:06.252Z,-0.50
2023-03-17T04:01:33.140Z,-0.56
2023-03-17T04:03:59.921Z,-0.78
2023-03-17T04:06:26.930Z,-0.71
2023-03-17T04:08:54.422Z,-0.67
2023-03-17T04:11:22.142Z,-0.67
2023-03-17T04:13:49.098Z,-0.60
2023-03-17T04:16:16.335Z,-0.56
2023-03-17T04:18:43.152Z,-0.50
2023-03-17T04:21:09.924Z,-0.45
2023-03-17T04:23:36.670Z,-0.39
2023-03-17T04:26:04.257Z,-0.21
2023-03-17T04:28:31.211Z,-0.06
2023-03-17T04:30:57.982Z,0.00
2023-03-17T04:33:24.798Z,0.05
2023-03-17T04:35:51.708Z,0.20
2023-03-17T04:38:18.494Z,0.25
2023-03-17T04:40:45.471Z,0.25
2023-03-17T04:43:12.246Z,0.40
2023-03-17T04:45:39.017Z,0.47
2023-03-17T04:48:05.992Z,0.46
2023-03-17T04:50:33.312Z,0.41
2023-03-17T04:53:01.559Z,0.48
2023-03-17T04:55:28.351Z,0.57
2023-03-17T04:57:55.054Z,0.56
2023-03-17T05:00:21.945Z,0.45
2023-03-17T05:02:48.874Z,0.50
2023-03-17T05:05:15.934Z,0.33
2023-03-17T05:07:44.915Z,0.42
2023-03-17T05:10:12.604Z,0.42
2023-03-17T05:12:39.348Z,0.41
2023-03-17T05:15:06.761Z,0.50
2023-03-17T05:17:33.497Z,0.50
2023-03-17T05:20:00.505Z,0.40
2023-03-17T05:22:27.257Z,0.59
2023-03-17T05:24:54.041Z,0.52
2023-03-17T05:27:21.532Z,0.51
2023-03-17T05:29:48.787Z,0.48
2023-03-17T05:32:15.508Z,0.55
2023-03-17T05:34:42.531Z,0.58
2023-03-17T05:37:10.347Z,0.61
2023-03-17T05:39:37.153Z,0.73
2023-03-17T05:42:04.512Z,0.73
2023-03-17T05:44:31.614Z,0.40
2023-03-17T05:46:59.756Z,0.81
2023-03-17T05:49:29.732Z,0.72
2023-03-17T05:51:56.415Z,0.69
2023-03-17T05:54:24.097Z,0.90
2023-03-17T05:56:50.868Z,0.73
2023-03-17T05:59:18.483Z,0.71
2023-03-17T06:01:45.453Z,0.87
2023-03-17T06:04:12.738Z,0.93
2023-03-17T06:06:40.000Z,0.92
2023-03-17T06:09:07.026Z,1.04
2023-03-17T06:11:33.791Z,1.10
2023-03-17T06:14:00.609Z,1.21
2023-03-17T06:16:30.538Z,1.28
2023-03-17T06:18:57.429Z,1.21
2023-03-17T06:21:24.181Z,1.26
2023-03-17T06:23:51.172Z,1.48
2023-03-17T06:26:17.937Z,1.63
2023-03-17T06:28:44.869Z,1.79
2023-03-17T06:31:12.123Z,1.82
2023-03-17T06:33:38.991Z,1.98
2023-03-17T06:36:06.490Z,2.04
2023-03-17T06:38:33.247Z,2.14
2023-03-17T06:40:59.993Z,2.27
2023-03-17T06:43:28.015Z,2.37
2023-03-17T06:45:55.149Z,2.47
2023-03-17T06:48:23.529Z,2.52
2023-03-17T06:50:50.358Z,2.64
2023-03-17T06:53:17.282Z,2.58
2023-03-17T06:55:45.050Z,2.70
2023-03-17T06:58:13.210Z,2.71
2023-03-17T07:00:40.057Z,2.79
2023-03-17T07:03:07.480Z,2.74
2023-03-17T07:05:34.284Z,2.94
2023-03-17T07:08:01.102Z,2.92
2023-03-17T07:10:28.169Z,3.06
2023-03-17T07:12:55.177Z,3.16
2023-03-17T07:15:22.109Z,3.24
2023-03-17T07:17:49.157Z,3.40
2023-03-17T07:20:16.723Z,3.42
2023-03-17T07:22:43.472Z,3.45
2023-03-17T07:25:10.928Z,3.73
2023-03-17T07:27:37.883Z,3.84
2023-03-17T07:30:06.196Z,3.98
2023-03-17T07:32:33.273Z,4.18
2023-03-17T07:35:00.027Z,4.30
2023-03-17T07:37:26.782Z,4.43
2023-03-17T07:39:53.531Z,4.75
2023-03-17T07:42:20.271Z,5.00
2023-03-17T07:44:46.980Z,5.15
2023-03-17T07:47:14.842Z,5.10
2023-03-17T07:49:42.514Z,5.38
2023-03-17T07:52:11.247Z,5.37
2023-03-17T07:54:41.548Z,5.47
2023-03-17T07:57:09.628Z,5.58
2023-03-17T07:59:36.553Z,5.62
2023-03-17T08:02:03.888Z,5.72
2023-03-17T08:04:30.805Z,5.88
2023-03-17T08:06:57.805Z,5.92
2023-03-17T08:09:24.920Z,5.87
2023-03-17T08:11:51.908Z,5.95
2023-03-17T08:14:19.112Z,6.05
2023-03-17T08:16:46.020Z,6.06
2023-03-17T08:19:13.133Z,6.15
2023-03-17T08:21:39.924Z,6.19
2023-03-17T08:24:07.030Z,6.27
2023-03-17T08:26:33.848Z,6.32
2023-03-17T08:29:01.345Z,6.49
2023-03-17T08:31:28.608Z,6.42
2023-03-17T08:33:57.266Z,6.48
2023-03-17T08:36:24.350Z,6.48
2023-03-17T08:38:51.275Z,6.41
2023-03-17T08:41:20.822Z,6.73
2023-03-17T08:43:48.467Z,6.60
2023-03-17T08:46:19.117Z,6.73
2023-03-17T08:48:48.275Z,6.87
2023-03-17T08:51:18.399Z,6.94
2023-03-17T08:53:46.461Z,6.99
2023-03-17T08:56:14.392Z,7.15
2023-03-17T08:58:42.678Z,7.27
2023-03-17T09:01:13.644Z,7.42
2023-03-17T09:03:40.964Z,7.48
2023-03-17T09:06:11.272Z,7.52
2023-03-17T09:08:40.056Z,7.57
2023-03-17T09:11:08.461Z,7.63
2023-03-17T09:13:38.007Z,7.67
2023-03-17T09:16:05.953Z,7.79
2023-03-17T09:18:33.190Z,7.77
2023-03-17T09:21:00.628Z,7.81
2023-03-17T09:23:27.526Z,7.79
2023-03-17T09:25:54.390Z,7.73
2023-03-17T09:28:21.133Z,7.84
2023-03-17T09:30:47.930Z,7.84
2023-03-17T09:33:15.760Z,7.99
2023-03-17T09:35:42.696Z,8.00
2023-03-17T09:38:10.291Z,7.97
2023-03-17T09:40:45.340Z,8.05
2023-03-17T09:43:30.610Z,8.21
2023-03-17T09:46:19.575Z,8.14
2023-03-17T09:49:09.531Z,8.30
2023-03-17T09:51:36.727Z,8.36
2023-03-17T09:54:07.912Z,8.21
2023-03-17T09:56:37.497Z,8.36
2023-03-17T09:59:13.548Z,8.33
2023-03-17T10:01:43.063Z,8.52
2023-03-17T10:04:11.340Z,8.53
2023-03-17T10:06:42.685Z,8.48
2023-03-17T10:09:22.473Z,8.59
2023-03-17T10:11:58.172Z,8.55
2023-03-17T10:14:39.914Z,8.62
2023-03-17T10:17:20.085Z,8.66
2023-03-17T10:20:09.064Z,8.72
2023-03-17T10:22:58.186Z,8.72
2023-03-17T10:25:30.587Z,8.76
2023-03-17T10:28:29.752Z,8.89
2023-03-17T10:31:18.183Z,8.91
2023-03-17T10:33:49.936Z,9.05
2023-03-17T10:36:18.016Z,9.15
2023-03-17T10:38:54.252Z,9.16
2023-03-17T10:41:21.161Z,9.35
2023-03-17T10:43:50.795Z,9.31
2023-03-17T10:46:24.324Z,9.33
2023-03-17T10:49:04.070Z,9.45
2023-03-17T10:51:34.358Z,9.60
2023-03-17T10:54:17.616Z,9.58
2023-03-17T10:56:50.682Z,9.69
2023-03-17T11:02:07.674Z,9.83
2023-03-17T11:04:37.780Z,9.86
2023-03-17T11:07:35.954Z,9.90
2023-03-17T11:10:05.737Z,9.96
2023-03-17T11:12:40.078Z,10.02
2023-03-17T11:15:11.960Z,10.03
2023-03-17T11:17:51.080Z,10.14
2023-03-17T11:20:35.005Z,10.31
2023-03-17T11:23:07.223Z,10.38
2023-03-17T11:25:41.952Z,10.53
2023-03-17T11:28:16.880Z,10.65
2023-03-17T11:30:52.282Z,10.66
2023-03-17T11:33:36.571Z,10.74
2023-03-17T11:36:43.572Z,10.89
2023-03-17T11:39:16.064Z,11.18
2023-03-17T11:42:01.686Z,11.50
2023-03-17T11:44:47.541Z,11.84
2023-03-17T11:47:15.080Z,12.61
2023-03-17T11:49:49.490Z,13.79
2023-03-17T11:52:28.615Z,14.77
2023-03-17T11:55:14.493Z,15.59
2023-03-17T11:57:56.941Z,16.03
2023-03-17T12:00:30.512Z,17.03
2023-03-17T12:03:25.981Z,17.66
2023-03-17T12:05:58.334Z,15.98
2023-03-17T12:08:34.339Z,14.72
2023-03-17T12:11:06.827Z,13.60
2023-03-17T12:13:46.658Z,12.93
2023-03-17T12:16:21.389Z,12.60
2023-03-17T12:19:19.506Z,12.13
2023-03-17T12:22:03.983Z,11.85
2023-03-17T12:24:48.070Z,11.61
2023-03-17T12:27:30.299Z,11.52
2023-03-17T12:30:15.513Z,11.35
2023-03-17T12:32:46.565Z,11.19
2023-03-17T12:35:27.947Z,11.18
2023-03-17T12:38:06.997Z,11.16
2023-03-17T12:40:47.339Z,11.10
2023-03-17T12:43:36.510Z,11.00
2023-03-17T12:46:12.338Z,11.06
2023-03-17T12:48:51.380Z,11.10
2023-03-17T12:51:24.081Z,10.96
2023-03-17T12:53:51.909Z,10.89
2023-03-17T12:56:27.563Z,11.00
2023-03-17T12:59:19.488Z,11.10
2023-03-17T13:01:58.440Z,11.14
2023-03-17T13:04:37.896Z,11.14
2023-03-17T13:07:12.506Z,10.97
2023-03-17T13:09:54.849Z,11.02
2023-03-17T13:12:56.126Z,11.00
2023-03-17T13:15:28.315Z,10.96
2023-03-17T13:18:16.988Z,11.04
2023-03-17T13:21:10.817Z,11.01
2023-03-17T13:23:46.285Z,10.90
2023-03-17T13:26:19.311Z,10.97
2023-03-17T13:28:50.117Z,10.97
2023-03-17T13:31:32.700Z,10.97
2023-03-17T13:34:12.960Z,10.81
2023-03-17T13:36:53.466Z,10.82
2023-03-17T13:39:32.657Z,10.88
2023-03-17T13:42:37.190Z,10.82
2023-03-17T13:45:07.241Z,10.88
2023-03-17T13:47:39.989Z,10.82
2023-03-17T13:50:13.635Z,10.85
2023-03-17T13:52:47.157Z,10.76
2023-03-17T13:55:23.717Z,10.88
2023-03-17T13:58:13.308Z,10.87
2023-03-17T14:00:51.519Z,10.83
2023-03-17T14:03:39.226Z,10.94
2023-03-17T14:06:08.767Z,10.94
2023-03-17T14:08:37.993Z,11.04
2023-03-17T14:11:22.431Z,10.97
2023-03-17T14:14:13.321Z,10.92
2023-03-17T14:16:47.188Z,10.81
2023-03-17T14:19:21.497Z,10.92
2023-03-17T14:21:48.503Z,10.89
2023-03-17T14:24:31.655Z,10.89
2023-03-17T14:27:07.281Z,10.81
2023-03-17T14:29:34.345Z,10.93
2023-03-17T14:32:11.966Z,11.02
2023-03-17T14:34:48.286Z,10.94
2023-03-17T14:37:16.552Z,10.90
2023-03-17T14:39:45.695Z,10.91
2023-03-17T14:42:12.477Z,10.78
2023-03-17T14:44:44.136Z,10.80
2023-03-17T14:47:21.067Z,10.84
2023-03-17T14:49:49.035Z,10.82
2023-03-17T14:52:21.537Z,10.78
2023-03-17T14:54:53.678Z,10.53
2023-03-17T14:57:30.234Z,10.62
2023-03-17T15:00:34.157Z,10.58
2023-03-17T15:03:05.241Z,10.53
2023-03-17T15:05:40.986Z,10.29
2023-03-17T15:08:36.540Z,10.24
2023-03-17T15:11:06.125Z,10.25
2023-03-17T15:13:36.429Z,10.14
2023-03-17T15:16:15.413Z,10.16
2023-03-17T15:18:42.854Z,10.06
2023-03-17T15:21:33.697Z,10.19
2023-03-17T15:24:06.006Z,10.31
2023-03-17T15:26:32.868Z,10.36
2023-03-17T15:29:00.591Z,10.38
2023-03-17T15:31:30.192Z,10.36
2023-03-17T15:33:57.890Z,10.30
2023-03-17T15:36:32.860Z,10.20
2023-03-17T15:39:00.862Z,10.08
2023-03-17T15:41:27.791Z,9.95
2023-03-17T15:43:54.578Z,9.85
2023-03-17T15:46:31.705Z,10.00
2023-03-17T15:48:58.637Z,9.91
2023-03-17T15:51:25.530Z,9.78
2023-03-17T15:53:52.421Z,9.84
2023-03-17T15:56:21.365Z,9.79
2023-03-17T15:58:49.401Z,9.81
2023-03-17T16:01:16.768Z,9.77
2023-03-17T16:03:45.470Z,9.54
2023-03-17T16:06:18.902Z,9.69
2023-03-17T16:08:45.975Z,9.59
2023-03-17T16:11:27.907Z,9.46
2023-03-17T16:13:59.641Z,9.39
2023-03-17T16:16:37.296Z,9.27
2023-03-17T16:19:14.902Z,9.17
2023-03-17T16:21:42.446Z,9.11
2023-03-17T16:24:18.337Z,9.04
2023-03-17T16:26:45.090Z,8.97
2023-03-17T16:29:16.182Z,8.83
2023-03-17T16:31:46.211Z,8.80
2023-03-17T16:34:17.680Z,8.76
2023-03-17T16:36:45.223Z,8.63
2023-03-17T16:39:22.412Z,8.39
2023-03-17T16:41:53.602Z,8.42
2023-03-17T16:44:21.564Z,8.36
2023-03-17T16:46:48.489Z,8.31
2023-03-17T16:49:16.964Z,8.24
2023-03-17T16:51:43.770Z,8.18
2023-03-17T16:54:11.368Z,8.14
2023-03-17T16:56:40.240Z,8.09
2023-03-17T16:59:14.950Z,7.87
2023-03-17T17:01:41.721Z,7.93
2023-03-17T17:04:11.465Z,7.73
2023-03-17T17:06:38.371Z,7.68
2023-03-17T17:09:05.323Z,7.70
2023-03-17T17:11:32.144Z,7.65
2023-03-17T17:13:59.908Z,7.60
2023-03-17T17:16:33.524Z,7.48
2023-03-17T17:19:01.301Z,7.49
2023-03-17T17:21:28.621Z,7.39
2023-03-17T17:23:55.961Z,7.48
2023-03-17T17:26:23.315Z,7.40
2023-03-17T17:28:50.230Z,7.37
2023-03-17T17:31:17.163Z,7.36
2023-03-17T17:33:44.046Z,7.31
2023-03-17T17:36:16.969Z,7.29
2023-03-17T17:38:44.098Z,7.13
2023-03-17T17:41:12.762Z,7.16
2023-03-17T17:43:40.005Z,7.01
2023-03-17T17:46:16.130Z,7.12
2023-03-17T17:48:43.614Z,7.12
2023-03-17T17:51:10.423Z,6.99
2023-03-17T17:53:37.292Z,7.02
2023-03-17T17:56:04.875Z,6.89
2023-03-17T17:58:31.729Z,7.02
2023-03-17T18:00:58.825Z,6.98
2023-03-17T18:03:26.596Z,6.89
2023-03-17T18:05:55.153Z,6.86
2023-03-17T18:08:23.056Z,6.85
2023-03-17T18:10:51.997Z,6.87
2023-03-17T18:13:19.286Z,6.82
2023-03-17T18:15:46.170Z,6.79
2023-03-17T18:18:13.038Z,6.67
2023-03-17T18:20:40.219Z,6.72
2023-03-17T18:23:07.996Z,6.60
2023-03-17T18:25:34.852Z,6.67
2023-03-17T18:28:01.820Z,6.66
2023-03-17T18:30:31.775Z,6.63
2023-03-17T18:33:02.479Z,6.69
2023-03-17T18:35:29.790Z,6.71
2023-03-17T18:37:58.024Z,6.65
2023-03-17T18:40:26.190Z,6.71
2023-03-17T18:42:53.619Z,6.71
2023-03-17T18:45:20.444Z,6.70
2023-03-17T18:47:47.185Z,6.67
2023-03-17T18:50:15.922Z,6.63
2023-03-17T18:52:43.932Z,6.63
2023-03-17T18:55:12.938Z,6.73
2023-03-17T18:57:43.118Z,6.69
2023-03-17T19:00:12.122Z,6.67
2023-03-17T19:02:39.247Z,6.61
2023-03-17T19:05:07.595Z,6.73
2023-03-17T19:07:34.838Z,6.60
2023-03-17T19:10:01.652Z,6.76
2023-03-17T19:12:28.457Z,6.74
2023-03-17T19:14:55.262Z,6.70
2023-03-17T19:17:22.772Z,6.62
2023-03-17T19:19:50.586Z,6.61
2023-03-17T19:22:17.875Z,6.46
2023-03-17T19:24:46.089Z,6.43
2023-03-17T19:27:12.859Z,6.43
2023-03-17T19:29:39.643Z,6.44
2023-03-17T19:32:06.570Z,6.33
2023-03-17T19:34:33.561Z,6.25
2023-03-17T19:37:02.449Z,6.22
2023-03-17T19:39:31.341Z,6.30
2023-03-17T19:41:59.313Z,6.26
2023-03-17T19:44:27.048Z,6.12
2023-03-17T19:46:53.825Z,6.15
2023-03-17T19:49:21.267Z,6.08
2023-03-17T19:51:49.130Z,6.14
2023-03-17T19:54:16.576Z,6.10
2023-03-17T19:56:44.509Z,6.10
2023-03-17T19:59:11.276Z,6.04
2023-03-17T20:01:38.696Z,6.01
2023-03-17T20:04:07.294Z,5.84
2023-03-17T20:06:34.776Z,5.95
2023-03-17T20:09:04.352Z,5.82
2023-03-17T20:11:34.011Z,5.80
2023-03-17T20:14:02.414Z,5.88
2023-03-17T20:16:31.964Z,5.88
2023-03-17T20:18:58.918Z,5.90
2023-03-17T20:21:26.265Z,5.84
2023-03-17T20:23:53.060Z,5.85
2023-03-17T20:26:20.010Z,5.80
2023-03-17T20:28:46.970Z,5.78
2023-03-17T20:31:14.053Z,5.77
2023-03-17T20:33:41.253Z,5.66
2023-03-17T20:36:08.348Z,5.71
2023-03-17T20:38:38.891Z,5.74
2023-03-17T20:41:14.239Z,5.71
2023-03-17T20:43:41.812Z,5.72
2023-03-17T20:46:13.782Z,5.66
2023-03-17T20:48:41.298Z,5.62
2023-03-17T20:51:10.187Z,5.65
2023-03-17T20:53:37.671Z,5.61
2023-03-17T20:56:04.828Z,5.50
2023-03-17T20:58:31.687Z,5.57
2023-03-17T21:00:58.807Z,5.42
2023-03-17T21:03:25.823Z,5.54
2023-03-17T21:05:53.489Z,5.45
2023-03-17T21:08:20.365Z,5.40
2023-03-17T21:10:47.122Z,5.43
2023-03-17T21:13:14.046Z,5.39
2023-03-17T21:15:41.234Z,5.38
2023-03-17T21:18:08.810Z,5.37
2023-03-17T21:20:35.620Z,5.38
2023-03-17T21:23:04.656Z,5.38
2023-03-17T21:25:31.492Z,5.32
2023-03-17T21:27:58.302Z,5.33
2023-03-17T21:30:25.038Z,5.32
2023-03-17T21:32:53.671Z,5.21
2023-03-17T21:35:21.841Z,5.26
2023-03-17T21:37:48.563Z,5.25
2023-03-17T21:40:15.681Z,5.28
2023-03-17T21:42:43.176Z,5.22
2023-03-17T21:45:10.457Z,5.09
2023-03-17T21:47:37.608Z,5.16
2023-03-17T21:50:05.192Z,5.22
2023-03-17T21:52:31.968Z,5.12
2023-03-17T21:54:59.646Z,5.16
2023-03-17T21:57:27.716Z,5.06
2023-03-17T21:59:54.534Z,5.14
2023-03-17T22:02:21.908Z,5.17
2023-03-17T22:04:49.554Z,5.04
2023-03-17T22:07:17.830Z,5.04
2023-03-17T22:09:44.962Z,5.09
2023-03-17T22:12:12.444Z,5.00
2023-03-17T22:14:39.736Z,5.07
2023-03-17T22:17:06.449Z,5.06
2023-03-17T22:19:33.392Z,4.98
2023-03-17T22:22:00.151Z,4.97
2023-03-17T22:24:27.034Z,5.02
2023-03-17T22:26:54.070Z,4.92
2023-03-17T22:29:20.885Z,4.89
2023-03-17T22:31:47.714Z,4.86
2023-03-17T22:34:14.667Z,4.93
2023-03-17T22:36:41.587Z,4.93
2023-03-17T22:39:11.915Z,4.86
2023-03-17T22:41:39.181Z,4.72
2023-03-17T22:44:08.403Z,4.82
2023-03-17T22:46:36.631Z,4.83
2023-03-17T22:49:04.125Z,4.61
2023-03-17T22:51:31.146Z,4.64
2023-03-17T22:53:58.323Z,4.63
2023-03-17T22:56:26.127Z,4.59
2023-03-17T22:58:54.245Z,4.54
2023-03-17T23:01:23.552Z,4.42
2023-03-17T23:03:50.924Z,4.50
2023-03-17T23:06:18.127Z,4.41
2023-03-17T23:08:45.943Z,4.39
2023-03-17T23:11:22.259Z,4.50
2023-03-17T23:13:49.664Z,4.41
2023-03-17T23:16:17.162Z,4.33
2023-03-17T23:18:46.813Z,4.31
2023-03-17T23:21:28.478Z,4.14
2023-03-17T23:23:55.781Z,4.28
2023-03-17T23:26:23.023Z,4.17
2023-03-17T23:28:50.025Z,4.19
2023-03-17T23:31:19.248Z,4.10
2023-03-17T23:33:47.601Z,3.96
2023-03-17T23:36:16.293Z,3.97
2023-03-17T23:38:44.190Z,3.91
2023-03-17T23:41:12.828Z,4.16
2023-03-17T23:43:40.410Z,4.08
2023-03-17T23:46:07.226Z,3.94
2023-03-17T23:48:34.008Z,3.88
2023-03-17T23:51:01.141Z,3.92
2023-03-17T23:53:28.441Z,3.88
2023-03-17T23:55:55.338Z,3.85
2023-03-17T23:58:22.849Z,3.82
